createdAt,value
2019-01-25T00:00:59.532Z,95.30
2019-01-25T00:03:39.092Z,94.03
2019-01-25T00:06:15.021Z,81.20
2019-01-25T00:08:49.692Z,92.10
2019-01-25T00:11:24.595Z,94.55
2019-01-25T00:13:56.469Z,92.22
2019-01-25T00:16:30.066Z,94.72
2019-01-25T00:19:01.930Z,95.85
2019-01-25T00:21:33.815Z,88.27
2019-01-25T00:24:06.540Z,93.40
2019-01-25T00:26:38.381Z,85.70
2019-01-25T00:29:10.371Z,84.87
2019-01-25T00:31:46.605Z,91.12
2019-01-25T00:34:18.449Z,86.57
2019-01-25T00:36:50.319Z,89.55
2019-01-25T00:39:27.532Z,96.97
2019-01-25T00:42:03.461Z,92.78
2019-01-25T00:44:37.064Z,89.80
2019-01-25T00:47:10.077Z,93.82
2019-01-25T00:49:49.176Z,92.53
2019-01-25T00:52:20.997Z,97.75
2019-01-25T00:54:57.179Z,95.35
2019-01-25T00:57:33.702Z,86.25
2019-01-25T01:00:21.395Z,88.92
2019-01-25T01:02:53.229Z,100.67
2019-01-25T01:05:25.617Z,95.92
2019-01-25T01:07:57.485Z,96.45
2019-01-25T01:10:29.358Z,95.15
2019-01-25T01:13:06.487Z,93.40
2019-01-25T01:15:37.431Z,87.92
2019-01-25T01:18:09.253Z,93.15
2019-01-25T01:20:42.772Z,96.72
2019-01-25T01:23:14.633Z,100.80
2019-01-25T01:25:46.532Z,87.67
2019-01-25T01:28:18.397Z,95.28
2019-01-25T01:30:51.421Z,93.50
2019-01-25T01:33:25.299Z,99.30
2019-01-25T01:36:04.606Z,95.65
2019-01-25T01:38:41.659Z,88.12
2019-01-25T01:41:13.536Z,94.32
2019-01-25T01:43:47.496Z,94.80
2019-01-25T01:46:23.879Z,92.90
2019-01-25T01:48:58.308Z,96.72
2019-01-25T01:51:30.182Z,94.83
2019-01-25T01:54:03.664Z,86.28
2019-01-25T01:56:37.288Z,83.67
2019-01-25T01:59:11.190Z,88.97
2019-01-25T02:01:45.791Z,83.33
2019-01-25T02:04:17.663Z,68.85
2019-01-25T02:06:49.659Z,81.82
2019-01-25T02:09:21.518Z,82.05
2019-01-25T02:11:53.381Z,85.20
2019-01-25T02:14:27.529Z,76.50
2019-01-25T02:16:59.562Z,72.25
2019-01-25T02:19:33.195Z,71.75
2019-01-25T02:22:07.136Z,71.62
2019-01-25T02:24:41.930Z,77.78
2019-01-25T02:27:22.626Z,75.47
2019-01-25T02:29:54.459Z,65.70
2019-01-25T02:32:29.310Z,69.80
2019-01-25T02:35:01.128Z,64.35
2019-01-25T02:37:32.971Z,62.03
2019-01-25T02:40:07.492Z,60.95
2019-01-25T02:42:43.249Z,59.58
2019-01-25T02:45:15.777Z,67.78
2019-01-25T02:47:47.706Z,66.47
2019-01-25T02:50:20.207Z,66.75
2019-01-25T02:52:53.881Z,67.80
2019-01-25T02:55:25.717Z,71.82
2019-01-25T02:57:57.590Z,69.82
2019-01-25T03:00:33.640Z,67.47
2019-01-25T03:03:05.739Z,79.27
2019-01-25T03:05:37.585Z,75.72
2019-01-25T03:08:09.480Z,208.40
2019-01-25T03:10:47.209Z,90.42
2019-01-25T03:13:18.481Z,87.42
2019-01-25T03:15:50.317Z,77.95
2019-01-25T03:18:22.204Z,76.00
2019-01-25T03:20:54.064Z,65.52
2019-01-25T03:23:27.744Z,67.12
2019-01-25T03:25:59.666Z,75.78
2019-01-25T03:28:31.525Z,74.17
2019-01-25T03:31:03.435Z,64.40
2019-01-25T03:33:35.273Z,68.17
2019-01-25T03:36:07.157Z,69.00
2019-01-25T03:38:40.733Z,66.07
2019-01-25T03:41:12.583Z,64.15
2019-01-25T03:43:44.414Z,64.12
2019-01-25T03:46:17.480Z,73.75
2019-01-25T03:48:50.929Z,66.15
2019-01-25T03:51:22.777Z,66.92
2019-01-25T03:53:54.613Z,66.90
2019-01-25T03:56:26.442Z,68.85
2019-01-25T03:58:58.371Z,65.65
2019-01-25T04:01:30.229Z,71.05
2019-01-25T04:04:02.088Z,75.32
2019-01-25T04:06:33.958Z,71.95
2019-01-25T04:09:10.518Z,70.95
2019-01-25T04:11:42.376Z,80.97
2019-01-25T04:14:14.249Z,69.97
2019-01-25T04:16:46.115Z,78.67
2019-01-25T04:19:17.961Z,73.28
2019-01-25T04:21:49.819Z,74.35
2019-01-25T04:24:22.048Z,75.30
2019-01-25T04:26:53.883Z,70.92
2019-01-25T04:29:25.831Z,77.53
2019-01-25T04:31:57.663Z,74.07
2019-01-25T04:34:29.515Z,63.28
2019-01-25T04:37:01.389Z,72.67
2019-01-25T04:39:33.228Z,71.22
2019-01-25T04:42:05.095Z,69.80
2019-01-25T04:44:36.953Z,75.55
2019-01-25T04:47:08.818Z,76.87
2019-01-25T04:49:40.704Z,68.05
2019-01-25T04:52:15.937Z,74.72
2019-01-25T04:54:47.824Z,66.53
2019-01-25T04:57:19.709Z,69.87
2019-01-25T04:59:51.512Z,70.25
2019-01-25T05:02:23.360Z,62.62
2019-01-25T05:04:55.199Z,70.15
2019-01-25T05:07:27.040Z,63.87
2019-01-25T05:09:58.899Z,67.30
2019-01-25T05:12:30.750Z,66.35
2019-01-25T05:15:03.984Z,69.37
2019-01-25T05:17:36.920Z,68.55
2019-01-25T05:20:09.216Z,68.67
2019-01-25T05:22:41.060Z,66.00
2019-01-25T05:25:12.924Z,64.05
2019-01-25T05:27:46.803Z,66.67
2019-01-25T05:30:27.022Z,64.85
2019-01-25T05:33:02.483Z,62.17
2019-01-25T05:35:39.500Z,66.62
2019-01-25T05:38:16.936Z,65.62
2019-01-25T05:40:51.673Z,62.20
2019-01-25T05:43:29.214Z,71.45
2019-01-25T05:46:07.766Z,69.62
2019-01-25T05:48:48.331Z,64.35
2019-01-25T05:51:25.409Z,72.37
2019-01-25T05:53:57.270Z,71.82
2019-01-25T05:56:29.132Z,62.95
2019-01-25T05:59:02.440Z,63.65
2019-01-25T06:01:42.401Z,57.62
2019-01-25T06:04:14.476Z,64.77
2019-01-25T06:06:46.298Z,73.12
2019-01-25T06:09:25.240Z,58.55
2019-01-25T06:11:57.059Z,56.23
2019-01-25T06:14:28.948Z,69.17
2019-01-25T06:17:02.220Z,67.78
2019-01-25T06:19:43.110Z,62.62
2019-01-25T06:22:17.682Z,61.00
2019-01-25T06:24:51.481Z,62.33
2019-01-25T06:27:25.050Z,62.20
2019-01-25T06:29:59.360Z,67.55
2019-01-25T06:32:31.902Z,68.33
2019-01-25T06:35:03.735Z,65.52
2019-01-25T06:37:35.595Z,70.85
2019-01-25T06:40:12.331Z,60.20
2019-01-25T06:42:44.197Z,64.25
2019-01-25T06:45:18.145Z,72.60
2019-01-25T06:47:50.889Z,65.45
2019-01-25T06:50:22.722Z,70.28
2019-01-25T06:52:57.713Z,73.85
2019-01-25T06:55:32.505Z,75.92
2019-01-25T06:58:26.255Z,70.50
2019-01-25T07:01:25.986Z,73.52
2019-01-25T07:03:57.848Z,60.70
2019-01-25T07:06:32.547Z,60.52
2019-01-25T07:09:07.776Z,67.82
2019-01-25T07:11:42.321Z,60.08
2019-01-25T07:14:18.988Z,66.97
2019-01-25T07:16:50.864Z,67.50
2019-01-25T07:19:24.207Z,66.70
2019-01-25T07:21:56.055Z,67.35
2019-01-25T07:24:38.556Z,63.02
2019-01-25T07:27:11.765Z,67.53
2019-01-25T07:29:49.668Z,70.95
2019-01-25T07:32:21.500Z,65.25
2019-01-25T07:34:53.385Z,67.85
2019-01-25T07:37:25.267Z,64.95
2019-01-25T07:39:57.260Z,60.83
2019-01-25T07:42:30.468Z,64.35
2019-01-25T07:45:05.244Z,64.53
2019-01-25T07:47:37.195Z,69.97
2019-01-25T07:50:12.238Z,71.85
2019-01-25T07:52:51.229Z,66.33
2019-01-25T07:55:25.880Z,65.62
2019-01-25T07:57:58.923Z,71.25
2019-01-25T08:00:30.833Z,73.80
2019-01-25T08:03:02.679Z,81.82
2019-01-25T08:05:35.071Z,78.33
2019-01-25T08:08:07.027Z,70.03
2019-01-25T08:10:38.920Z,76.82
2019-01-25T08:13:17.471Z,83.92
2019-01-25T08:15:51.445Z,83.27
2019-01-25T08:18:30.551Z,79.37
2019-01-25T08:21:02.548Z,79.75
2019-01-25T08:23:34.445Z,73.30
2019-01-25T08:26:10.408Z,77.65
2019-01-25T08:28:42.355Z,76.55
2019-01-25T08:31:18.835Z,78.00
2019-01-25T08:33:50.756Z,74.30
2019-01-25T08:36:26.436Z,85.22
2019-01-25T08:38:58.282Z,75.78
2019-01-25T08:41:32.350Z,72.08
2019-01-25T08:44:04.332Z,73.05
2019-01-25T08:46:38.760Z,85.47
2019-01-25T08:49:10.827Z,79.62
2019-01-25T08:51:42.651Z,89.75
2019-01-25T08:54:16.354Z,83.35
2019-01-25T08:56:49.256Z,76.75
2019-01-25T08:59:21.173Z,88.62
2019-01-25T09:01:52.958Z,82.10
2019-01-25T09:04:24.818Z,87.20
2019-01-25T09:06:57.939Z,87.15
2019-01-25T09:09:30.991Z,94.17
2019-01-25T09:12:03.935Z,84.32
2019-01-25T09:14:35.782Z,77.32
2019-01-25T09:17:13.958Z,83.00
2019-01-25T09:19:52.671Z,89.30
2019-01-25T09:22:28.599Z,73.90
2019-01-25T09:25:00.516Z,85.50
2019-01-25T09:27:32.330Z,74.17
2019-01-25T09:30:04.251Z,71.30
2019-01-25T09:32:36.107Z,76.55
2019-01-25T09:35:08.763Z,68.60
2019-01-25T09:37:40.990Z,69.50
2019-01-25T09:40:21.531Z,67.90
2019-01-25T09:42:54.046Z,72.85
2019-01-25T09:45:25.905Z,62.38
2019-01-25T09:47:57.773Z,69.90
2019-01-25T09:50:33.340Z,65.65
2019-01-25T09:53:05.367Z,69.40
2019-01-25T09:55:37.194Z,67.30
2019-01-25T09:58:13.013Z,64.42
2019-01-25T10:01:03.152Z,71.55
2019-01-25T10:03:35.005Z,70.00
2019-01-25T10:06:06.827Z,70.20
2019-01-25T10:08:40.443Z,60.73
2019-01-25T10:11:12.264Z,58.23
2019-01-25T10:13:44.092Z,64.55
2019-01-25T10:16:18.863Z,61.55
2019-01-25T10:18:50.689Z,67.37
2019-01-25T10:21:22.518Z,58.73
2019-01-25T10:23:54.375Z,66.28
2019-01-25T10:26:26.202Z,59.98
2019-01-25T10:28:58.032Z,65.52
2019-01-25T10:31:29.869Z,61.33
2019-01-25T10:34:02.797Z,65.17
2019-01-25T10:36:34.708Z,59.03
2019-01-25T10:39:09.405Z,56.60
2019-01-25T10:41:41.270Z,60.55
2019-01-25T10:44:13.118Z,58.70
2019-01-25T10:46:45.019Z,56.35
2019-01-25T10:49:18.109Z,64.67
2019-01-25T10:51:49.958Z,60.05
2019-01-25T10:54:21.775Z,53.50
2019-01-25T10:56:53.854Z,60.75
2019-01-25T10:59:25.692Z,63.17
2019-01-25T11:01:57.566Z,57.48
2019-01-25T11:04:29.400Z,55.92
2019-01-25T11:07:01.239Z,60.52
2019-01-25T11:09:37.915Z,56.45
2019-01-25T11:12:06.707Z,60.15
2019-01-25T11:14:38.577Z,57.67
2019-01-25T11:17:10.456Z,55.30
2019-01-25T11:19:42.346Z,59.45
2019-01-25T11:22:14.160Z,61.48
2019-01-25T11:24:46.017Z,57.15
2019-01-25T11:27:17.861Z,59.65
2019-01-25T11:29:51.791Z,55.92
2019-01-25T11:32:23.666Z,56.88
2019-01-25T11:34:55.707Z,62.53
2019-01-25T11:37:28.639Z,60.78
2019-01-25T11:40:01.489Z,55.50
2019-01-25T11:42:33.419Z,62.05
2019-01-25T11:45:05.792Z,63.85
2019-01-25T11:47:37.637Z,60.63
2019-01-25T11:50:12.441Z,56.88
2019-01-25T11:52:44.311Z,58.85
2019-01-25T11:55:16.669Z,53.92
2019-01-25T11:57:48.605Z,57.83
2019-01-25T12:00:23.598Z,59.80
2019-01-25T12:02:55.509Z,60.45
2019-01-25T12:05:27.755Z,62.85
2019-01-25T12:07:59.594Z,66.82
2019-01-25T12:10:32.974Z,61.50
2019-01-25T12:13:05.825Z,57.67
2019-01-25T12:15:37.640Z,61.73
2019-01-25T12:18:09.488Z,62.15
2019-01-25T12:20:41.368Z,62.30
2019-01-25T12:23:13.217Z,56.37
2019-01-25T12:25:45.094Z,59.55
2019-01-25T12:28:16.925Z,63.25
2019-01-25T12:30:48.816Z,58.13
2019-01-25T12:33:22.067Z,62.58
2019-01-25T12:35:56.939Z,65.55
2019-01-25T12:38:29.983Z,63.23
2019-01-25T12:41:03.895Z,55.83
2019-01-25T12:43:35.735Z,63.70
2019-01-25T12:46:07.600Z,65.37
2019-01-25T12:48:39.420Z,58.52
2019-01-25T12:51:49.413Z,62.60
2019-01-25T12:54:21.253Z,58.83
2019-01-25T12:56:56.173Z,59.48
2019-01-25T12:59:28.103Z,60.35
2019-01-25T13:02:01.725Z,58.65
2019-01-25T13:04:33.554Z,60.73
2019-01-25T13:07:05.547Z,62.17
2019-01-25T13:09:37.485Z,57.03
2019-01-25T13:12:09.349Z,59.67
2019-01-25T13:14:41.171Z,60.70
2019-01-25T13:17:13.044Z,58.90
2019-01-25T13:19:47.284Z,61.92
2019-01-25T13:22:19.118Z,60.75
2019-01-25T13:24:50.961Z,60.95
2019-01-25T13:27:25.294Z,59.00
2019-01-25T13:30:01.644Z,63.83
2019-01-25T13:32:38.207Z,63.00
2019-01-25T13:35:10.144Z,60.20
2019-01-25T13:37:42.077Z,56.75
2019-01-25T13:40:16.944Z,58.73
2019-01-25T13:42:49.098Z,57.80
2019-01-25T13:45:21.621Z,48.92
2019-01-25T13:47:53.734Z,54.65
2019-01-25T13:50:27.590Z,60.23
2019-01-25T13:52:59.853Z,62.62
2019-01-25T13:55:36.878Z,54.98
2019-01-25T13:58:10.334Z,56.25
2019-01-25T14:00:42.205Z,58.95
2019-01-25T14:03:14.043Z,53.28
2019-01-25T14:05:50.861Z,51.37
2019-01-25T14:08:22.619Z,55.33
2019-01-25T14:10:57.619Z,57.73
2019-01-25T14:13:34.102Z,50.12
2019-01-25T14:16:04.076Z,54.10
2019-01-25T14:18:35.972Z,52.78
2019-01-25T14:21:07.854Z,56.40
2019-01-25T14:23:42.880Z,56.35
2019-01-25T14:26:17.634Z,50.05
2019-01-25T14:28:49.562Z,50.88
2019-01-25T14:31:25.036Z,56.02
2019-01-25T14:33:56.892Z,61.33
2019-01-25T14:36:28.756Z,58.87
2019-01-25T14:39:08.002Z,57.65
2019-01-25T14:41:42.913Z,57.27
2019-01-25T14:44:18.559Z,59.30
2019-01-25T14:46:50.543Z,59.35
2019-01-25T14:49:22.387Z,58.87
2019-01-25T14:51:55.378Z,55.30
2019-01-25T14:54:29.900Z,56.95
2019-01-25T14:57:01.736Z,55.60
2019-01-25T14:59:34.770Z,59.40
2019-01-25T15:02:06.661Z,53.75
2019-01-25T15:04:40.046Z,58.23
2019-01-25T15:07:15.503Z,51.73
2019-01-25T15:09:47.395Z,49.05
2019-01-25T15:12:21.022Z,52.90
2019-01-25T15:14:52.947Z,51.92
2019-01-25T15:17:26.878Z,48.35
2019-01-25T15:20:01.859Z,62.13
2019-01-25T15:22:37.662Z,59.05
2019-01-25T15:25:09.630Z,50.92
2019-01-25T15:27:41.531Z,42.85
2019-01-25T15:30:23.317Z,49.03
2019-01-25T15:32:55.369Z,49.10
2019-01-25T15:35:29.689Z,46.13
2019-01-25T15:38:03.442Z,42.70
2019-01-25T15:40:35.487Z,42.20
2019-01-25T15:43:10.226Z,43.05
2019-01-25T15:45:46.531Z,44.67
2019-01-25T15:48:19.400Z,51.10
2019-01-25T15:50:51.212Z,57.88
2019-01-25T15:53:23.033Z,55.10
2019-01-25T15:55:57.964Z,52.67
2019-01-25T15:58:29.816Z,53.98
2019-01-25T16:01:03.915Z,65.22
2019-01-25T16:03:35.822Z,49.35
2019-01-25T16:06:10.828Z,47.95
2019-01-25T16:08:50.407Z,45.43
2019-01-25T16:11:33.813Z,42.93
2019-01-25T16:14:04.523Z,46.23
2019-01-25T16:16:41.318Z,56.53
2019-01-25T16:19:22.746Z,56.23
2019-01-25T16:21:58.608Z,51.48
2019-01-25T16:24:32.579Z,47.78
2019-01-25T16:27:10.310Z,46.35
2019-01-25T16:29:42.182Z,45.70
2019-01-25T16:32:15.245Z,40.70
2019-01-25T16:34:58.163Z,38.88
2019-01-25T16:37:30.074Z,36.88
2019-01-25T16:40:02.014Z,36.80
2019-01-25T16:42:45.915Z,36.75
2019-01-25T16:45:25.969Z,34.78
2019-01-25T16:47:57.882Z,35.38
2019-01-25T16:50:31.089Z,34.75
2019-01-25T16:53:07.808Z,32.45
2019-01-25T16:55:43.630Z,33.92
2019-01-25T16:58:15.584Z,34.75
2019-01-25T17:00:54.008Z,30.60
2019-01-25T17:03:25.891Z,29.95
2019-01-25T17:05:57.728Z,30.23
2019-01-25T17:08:32.374Z,30.30
2019-01-25T17:11:09.105Z,31.10
2019-01-25T17:13:40.926Z,33.33
2019-01-25T17:16:13.964Z,32.05
2019-01-25T17:18:45.947Z,32.50
2019-01-25T17:21:17.841Z,39.65
2019-01-25T17:23:57.200Z,31.57
2019-01-25T17:26:31.912Z,26.80
2019-01-25T17:29:03.982Z,29.70
2019-01-25T17:31:35.884Z,28.42
2019-01-25T17:34:07.746Z,28.27
2019-01-25T17:36:39.851Z,29.15
2019-01-25T17:39:17.459Z,29.90
2019-01-25T17:41:49.365Z,29.75
2019-01-25T17:44:21.177Z,30.40
2019-01-25T17:46:56.150Z,28.00
2019-01-25T17:49:27.985Z,28.15
2019-01-25T17:51:59.898Z,30.52
2019-01-25T17:54:31.711Z,29.52
2019-01-25T17:57:03.850Z,32.08
2019-01-25T17:59:35.681Z,37.05
2019-01-25T18:02:09.098Z,30.65
2019-01-25T18:04:41.041Z,31.97
2019-01-25T18:07:12.943Z,29.55
2019-01-25T18:09:47.413Z,28.23
2019-01-25T18:12:19.414Z,27.22
2019-01-25T18:14:51.254Z,27.25
2019-01-25T18:17:23.108Z,29.40
2019-01-25T18:19:54.996Z,32.10
2019-01-25T18:22:29.381Z,33.50
2019-01-25T18:25:01.393Z,32.17
2019-01-25T18:27:33.348Z,29.23
2019-01-25T18:30:12.870Z,33.10
2019-01-25T18:32:46.912Z,33.13
2019-01-25T18:35:18.775Z,35.83
2019-01-25T18:37:50.753Z,36.88
2019-01-25T18:40:23.739Z,33.83
2019-01-25T18:42:55.700Z,32.17
2019-01-25T18:45:28.689Z,34.85
2019-01-25T18:48:00.515Z,33.20
2019-01-25T18:50:32.422Z,32.23
2019-01-25T18:53:04.375Z,33.02
2019-01-25T18:55:36.562Z,31.45
2019-01-25T18:58:08.409Z,31.90
2019-01-25T19:00:40.306Z,33.65
2019-01-25T19:03:12.173Z,32.95
2019-01-25T19:05:44.158Z,34.75
2019-01-25T19:08:15.990Z,27.85
2019-01-25T19:10:47.963Z,29.85
2019-01-25T19:13:19.854Z,29.87
2019-01-25T19:15:51.723Z,32.53
2019-01-25T19:18:23.554Z,29.00
2019-01-25T19:20:55.418Z,31.65
2019-01-25T19:23:27.298Z,31.33
2019-01-25T19:25:59.190Z,31.48
2019-01-25T19:28:31.063Z,25.48
2019-01-25T19:31:02.927Z,26.65
2019-01-25T19:33:34.902Z,23.77
2019-01-25T19:36:07.092Z,24.07
2019-01-25T19:38:38.948Z,23.22
2019-01-25T19:41:10.810Z,22.93
2019-01-25T19:43:42.678Z,22.93
2019-01-25T19:46:14.617Z,20.27
2019-01-25T19:48:46.586Z,24.65
2019-01-25T19:51:18.439Z,20.82
2019-01-25T19:53:51.574Z,22.13
2019-01-25T19:56:29.241Z,19.87
2019-01-25T19:59:03.223Z,23.47
2019-01-25T20:01:37.407Z,16.25
2019-01-25T20:04:10.894Z,18.25
2019-01-25T20:06:43.002Z,19.65
2019-01-25T20:09:16.524Z,17.00
2019-01-25T20:11:56.610Z,16.45
2019-01-25T20:14:30.668Z,20.77
2019-01-25T20:17:02.510Z,21.37
2019-01-25T20:19:36.013Z,21.17
2019-01-25T20:22:10.590Z,19.50
2019-01-25T20:24:44.922Z,16.15
2019-01-25T20:27:21.657Z,21.42
2019-01-25T20:29:53.168Z,17.17
2019-01-25T20:32:25.112Z,16.57
2019-01-25T20:34:59.139Z,18.25
2019-01-25T20:37:34.801Z,20.17
2019-01-25T20:40:10.784Z,17.17
2019-01-25T20:42:44.096Z,18.70
2019-01-25T20:45:27.908Z,18.73
2019-01-25T20:48:02.447Z,16.15
2019-01-25T20:50:41.974Z,15.70
2019-01-25T20:53:17.728Z,14.65
2019-01-25T20:55:49.618Z,15.63
2019-01-25T20:58:23.754Z,16.17
2019-01-25T21:00:56.094Z,17.80
2019-01-25T21:03:28.131Z,15.85
2019-01-25T21:06:02.415Z,16.95
2019-01-25T21:08:35.278Z,15.05
2019-01-25T21:11:07.396Z,16.25
2019-01-25T21:13:43.379Z,14.58
2019-01-25T21:16:19.327Z,20.08
2019-01-25T21:18:51.184Z,15.30
2019-01-25T21:21:25.453Z,15.80
2019-01-25T21:24:00.300Z,15.80
2019-01-25T21:26:32.129Z,15.65
2019-01-25T21:29:06.923Z,13.40
2019-01-25T21:31:41.589Z,16.20
2019-01-25T21:34:13.470Z,16.48
2019-01-25T21:36:49.488Z,11.45
2019-01-25T21:39:24.900Z,13.83
2019-01-25T21:41:56.710Z,14.80
2019-01-25T21:44:40.270Z,12.50
2019-01-25T21:47:15.505Z,15.18
2019-01-25T21:49:49.135Z,13.13
2019-01-25T21:52:23.008Z,15.85
2019-01-25T21:54:54.975Z,12.28
2019-01-25T21:57:26.825Z,11.45
2019-01-25T22:00:08.788Z,12.37
2019-01-25T22:02:42.494Z,13.38
2019-01-25T22:05:14.348Z,12.47
2019-01-25T22:07:46.286Z,10.72
2019-01-25T22:10:29.727Z,12.55
2019-01-25T22:13:04.465Z,13.00
2019-01-25T22:15:40.730Z,11.80
2019-01-25T22:18:12.585Z,13.62
2019-01-25T22:20:45.266Z,13.45
2019-01-25T22:23:23.687Z,14.18
2019-01-25T22:25:55.537Z,13.75
2019-01-25T22:28:27.420Z,11.88
2019-01-25T22:31:04.758Z,14.55
2019-01-25T22:33:39.686Z,13.48
2019-01-25T22:36:12.943Z,12.82
2019-01-25T22:38:49.288Z,13.25
2019-01-25T22:41:20.830Z,13.53
2019-01-25T22:43:58.584Z,14.33
2019-01-25T22:46:30.440Z,13.43
2019-01-25T22:49:02.275Z,16.65
2019-01-25T22:51:38.547Z,12.88
2019-01-25T22:54:12.923Z,11.75
2019-01-25T22:56:56.177Z,15.43
2019-01-25T22:59:30.708Z,13.15
2019-01-25T23:02:04.180Z,16.85
2019-01-25T23:05:29.661Z,13.80
2019-01-25T23:08:04.374Z,16.20
2019-01-25T23:10:40.160Z,16.10
2019-01-25T23:13:14.483Z,16.90
2019-01-25T23:15:49.409Z,15.05
2019-01-25T23:18:21.273Z,16.57
2019-01-25T23:20:53.126Z,13.03
2019-01-25T23:23:27.029Z,12.28
2019-01-25T23:25:58.839Z,14.43
2019-01-25T23:28:39.500Z,13.72
2019-01-25T23:31:11.366Z,14.78
2019-01-25T23:33:43.201Z,15.80
2019-01-25T23:36:15.030Z,14.85
2019-01-25T23:38:46.876Z,14.68
2019-01-25T23:41:20.801Z,16.95
2019-01-25T23:43:53.960Z,15.32
2019-01-25T23:46:25.870Z,15.03
2019-01-25T23:48:57.693Z,12.00
2019-01-25T23:51:30.752Z,12.75
2019-01-25T23:54:06.870Z,13.35
2019-01-25T23:56:44.114Z,15.03
2019-01-25T23:59:17.030Z,14.53
